sensor_id;sensor_type;location;lat;lon;timestamp;P1;durP1;ratioP1;P2;durP2;ratioP2
37221;SDS011;23119;51.842;-2.230;2023-03-04T00:00:36;12.82;;;7.38;;
37221;SDS011;23119;51.842;-2.230;2023-03-04T00:03:10;12.60;;;7.25;;
37221;SDS011;23119;51.842;-2.230;2023-03-04T00:05:41;11.40;;;6.65;;
37221;SDS011;23119;51.842;-2.230;2023-03-04T00:08:12;13.52;;;7.43;;
37221;SDS011;23119;51.842;-2.230;2023-03-04T00:10:38;16.02;;;8.63;;
37221;SDS011;23119;51.842;-2.230;2023-03-04T00:13:06;12.82;;;7.95;;
37221;SDS011;23119;51.842;-2.230;2023-03-04T00:15:32;12.13;;;7.25;;
37221;SDS011;23119;51.842;-2.230;2023-03-04T00:18:00;11.45;;;6.72;;
37221;SDS011;23119;51.842;-2.230;2023-03-04T00:20:25;11.98;;;6.22;;
37221;SDS011;23119;51.842;-2.230;2023-03-04T00:22:53;15.27;;;7.50;;
37221;SDS011;23119;51.842;-2.230;2023-03-04T00:25:25;27.60;;;13.50;;
37221;SDS011;23119;51.842;-2.230;2023-03-04T00:27:51;21.52;;;10.55;;
37221;SDS011;23119;51.842;-2.230;2023-03-04T00:30:19;12.88;;;7.45;;
37221;SDS011;23119;51.842;-2.230;2023-03-04T00:32:45;13.98;;;6.90;;
37221;SDS011;23119;51.842;-2.230;2023-03-04T00:35:11;13.88;;;7.72;;
37221;SDS011;23119;51.842;-2.230;2023-03-04T00:37:36;11.73;;;7.18;;
37221;SDS011;23119;51.842;-2.230;2023-03-04T00:40:02;12.70;;;7.07;;
37221;SDS011;23119;51.842;-2.230;2023-03-04T00:42:31;13.02;;;7.35;;
37221;SDS011;23119;51.842;-2.230;2023-03-04T00:44:57;12.95;;;6.75;;
37221;SDS011;23119;51.842;-2.230;2023-03-04T00:47:25;14.13;;;6.93;;
37221;SDS011;23119;51.842;-2.230;2023-03-04T00:49:53;12.13;;;6.57;;
37221;SDS011;23119;51.842;-2.230;2023-03-04T00:52:28;13.23;;;7.32;;
37221;SDS011;23119;51.842;-2.230;2023-03-04T00:54:56;12.73;;;7.07;;
37221;SDS011;23119;51.842;-2.230;2023-03-04T00:57:25;12.27;;;7.00;;
37221;SDS011;23119;51.842;-2.230;2023-03-04T00:59:50;13.45;;;7.22;;
37221;SDS011;23119;51.842;-2.230;2023-03-04T01:02:18;18.10;;;7.38;;
37221;SDS011;23119;51.842;-2.230;2023-03-04T01:04:47;12.73;;;6.90;;
37221;SDS011;23119;51.842;-2.230;2023-03-04T01:07:13;15.48;;;7.10;;
37221;SDS011;23119;51.842;-2.230;2023-03-04T01:09:44;14.52;;;8.13;;
37221;SDS011;23119;51.842;-2.230;2023-03-04T01:12:09;16.17;;;7.25;;
37221;SDS011;23119;51.842;-2.230;2023-03-04T01:14:39;14.02;;;8.05;;
37221;SDS011;23119;51.842;-2.230;2023-03-04T01:17:05;14.57;;;7.53;;
37221;SDS011;23119;51.842;-2.230;2023-03-04T01:19:36;14.00;;;7.68;;
37221;SDS011;23119;51.842;-2.230;2023-03-04T01:22:02;17.33;;;8.93;;
37221;SDS011;23119;51.842;-2.230;2023-03-04T01:24:30;15.27;;;7.60;;
37221;SDS011;23119;51.842;-2.230;2023-03-04T01:27:00;14.02;;;6.85;;
37221;SDS011;23119;51.842;-2.230;2023-03-04T01:29:37;14.00;;;7.38;;
37221;SDS011;23119;51.842;-2.230;2023-03-04T01:32:03;15.63;;;8.93;;
37221;SDS011;23119;51.842;-2.230;2023-03-04T01:37:03;17.60;;;6.93;;
37221;SDS011;23119;51.842;-2.230;2023-03-04T01:39:31;10.75;;;5.88;;
37221;SDS011;23119;51.842;-2.230;2023-03-04T01:41:59;11.23;;;4.82;;
37221;SDS011;23119;51.842;-2.230;2023-03-04T01:44:33;10.65;;;4.80;;
37221;SDS011;23119;51.842;-2.230;2023-03-04T01:47:02;14.25;;;5.85;;
37221;SDS011;23119;51.842;-2.230;2023-03-04T01:49:30;11.80;;;4.78;;
37221;SDS011;23119;51.842;-2.230;2023-03-04T01:52:00;11.38;;;5.35;;
37221;SDS011;23119;51.842;-2.230;2023-03-04T01:54:28;12.57;;;4.40;;
37221;SDS011;23119;51.842;-2.230;2023-03-04T01:56:57;14.43;;;3.67;;
37221;SDS011;23119;51.842;-2.230;2023-03-04T01:59:25;11.93;;;3.88;;
37221;SDS011;23119;51.842;-2.230;2023-03-04T02:01:58;12.40;;;3.53;;
37221;SDS011;23119;51.842;-2.230;2023-03-04T02:04:27;7.68;;;3.25;;
37221;SDS011;23119;51.842;-2.230;2023-03-04T02:07:01;6.45;;;3.35;;
37221;SDS011;23119;51.842;-2.230;2023-03-04T02:09:29;12.82;;;3.38;;
37221;SDS011;23119;51.842;-2.230;2023-03-04T02:11:56;8.32;;;2.13;;
37221;SDS011;23119;51.842;-2.230;2023-03-04T02:14:27;7.28;;;3.30;;
37221;SDS011;23119;51.842;-2.230;2023-03-04T02:16:56;13.70;;;3.35;;
37221;SDS011;23119;51.842;-2.230;2023-03-04T02:19:26;11.48;;;3.65;;
37221;SDS011;23119;51.842;-2.230;2023-03-04T02:22:14;7.65;;;2.78;;
37221;SDS011;23119;51.842;-2.230;2023-03-04T02:24:42;11.30;;;3.63;;
37221;SDS011;23119;51.842;-2.230;2023-03-04T02:27:17;11.88;;;3.63;;
37221;SDS011;23119;51.842;-2.230;2023-03-04T02:29:43;8.77;;;3.30;;
37221;SDS011;23119;51.842;-2.230;2023-03-04T02:32:11;8.05;;;3.17;;
37221;SDS011;23119;51.842;-2.230;2023-03-04T02:34:43;8.77;;;2.33;;
37221;SDS011;23119;51.842;-2.230;2023-03-04T02:37:14;21.60;;;6.13;;
37221;SDS011;23119;51.842;-2.230;2023-03-04T02:39:42;16.50;;;4.07;;
37221;SDS011;23119;51.842;-2.230;2023-03-04T02:42:13;8.70;;;3.25;;
37221;SDS011;23119;51.842;-2.230;2023-03-04T02:44:40;11.00;;;4.00;;
37221;SDS011;23119;51.842;-2.230;2023-03-04T02:47:13;8.85;;;3.58;;
37221;SDS011;23119;51.842;-2.230;2023-03-04T02:49:44;10.27;;;4.13;;
37221;SDS011;23119;51.842;-2.230;2023-03-04T02:52:19;11.57;;;5.20;;
37221;SDS011;23119;51.842;-2.230;2023-03-04T02:54:51;9.50;;;3.95;;
37221;SDS011;23119;51.842;-2.230;2023-03-04T02:57:19;9.65;;;3.42;;
37221;SDS011;23119;51.842;-2.230;2023-03-04T03:02:16;11.30;;;3.30;;
37221;SDS011;23119;51.842;-2.230;2023-03-04T03:04:45;11.70;;;3.58;;
37221;SDS011;23119;51.842;-2.230;2023-03-04T03:07:13;11.73;;;4.20;;
37221;SDS011;23119;51.842;-2.230;2023-03-04T03:09:42;10.80;;;4.35;;
37221;SDS011;23119;51.842;-2.230;2023-03-04T03:12:08;11.77;;;3.67;;
37221;SDS011;23119;51.842;-2.230;2023-03-04T03:14:36;10.75;;;4.55;;
37221;SDS011;23119;51.842;-2.230;2023-03-04T03:17:02;13.13;;;5.57;;
37221;SDS011;23119;51.842;-2.230;2023-03-04T03:19:30;12.70;;;4.75;;
37221;SDS011;23119;51.842;-2.230;2023-03-04T03:21:59;14.10;;;4.82;;
37221;SDS011;23119;51.842;-2.230;2023-03-04T03:24:27;15.77;;;5.00;;
37221;SDS011;23119;51.842;-2.230;2023-03-04T03:26:56;10.90;;;4.78;;
37221;SDS011;23119;51.842;-2.230;2023-03-04T03:29:24;13.60;;;4.68;;
37221;SDS011;23119;51.842;-2.230;2023-03-04T03:31:56;13.10;;;5.03;;
37221;SDS011;23119;51.842;-2.230;2023-03-04T03:34:21;11.82;;;5.13;;
37221;SDS011;23119;51.842;-2.230;2023-03-04T03:36:49;14.73;;;5.82;;
37221;SDS011;23119;51.842;-2.230;2023-03-04T03:39:18;15.05;;;5.75;;
37221;SDS011;23119;51.842;-2.230;2023-03-04T03:41:46;14.27;;;4.82;;
37221;SDS011;23119;51.842;-2.230;2023-03-04T03:44:17;13.00;;;4.63;;
37221;SDS011;23119;51.842;-2.230;2023-03-04T03:46:45;12.15;;;4.50;;
37221;SDS011;23119;51.842;-2.230;2023-03-04T03:49:16;9.20;;;5.30;;
37221;SDS011;23119;51.842;-2.230;2023-03-04T03:51:44;10.48;;;4.82;;
37221;SDS011;23119;51.842;-2.230;2023-03-04T03:54:10;12.88;;;5.40;;
37221;SDS011;23119;51.842;-2.230;2023-03-04T03:56:38;11.27;;;3.90;;
37221;SDS011;23119;51.842;-2.230;2023-03-04T03:59:09;9.18;;;3.92;;
37221;SDS011;23119;51.842;-2.230;2023-03-04T04:01:41;11.63;;;3.38;;
37221;SDS011;23119;51.842;-2.230;2023-03-04T04:04:18;9.48;;;3.58;;
37221;SDS011;23119;51.842;-2.230;2023-03-04T04:06:49;8.25;;;3.17;;
37221;SDS011;23119;51.842;-2.230;2023-03-04T04:09:15;5.63;;;2.53;;
37221;SDS011;23119;51.842;-2.230;2023-03-04T04:11:43;6.80;;;2.85;;
37221;SDS011;23119;51.842;-2.230;2023-03-04T04:14:12;6.63;;;2.50;;
37221;SDS011;23119;51.842;-2.230;2023-03-04T04:16:38;8.00;;;2.85;;
37221;SDS011;23119;51.842;-2.230;2023-03-04T04:19:10;11.65;;;2.50;;
37221;SDS011;23119;51.842;-2.230;2023-03-04T04:21:44;7.93;;;2.22;;
37221;SDS011;23119;51.842;-2.230;2023-03-04T04:24:10;8.30;;;1.88;;
37221;SDS011;23119;51.842;-2.230;2023-03-04T04:26:36;5.18;;;1.88;;
37221;SDS011;23119;51.842;-2.230;2023-03-04T04:29:02;7.82;;;1.77;;
37221;SDS011;23119;51.842;-2.230;2023-03-04T04:31:30;6.03;;;1.77;;
37221;SDS011;23119;51.842;-2.230;2023-03-04T04:33:56;6.32;;;1.50;;
37221;SDS011;23119;51.842;-2.230;2023-03-04T04:36:21;7.07;;;1.90;;
37221;SDS011;23119;51.842;-2.230;2023-03-04T04:38:47;7.47;;;1.50;;
37221;SDS011;23119;51.842;-2.230;2023-03-04T04:41:22;8.13;;;1.75;;
37221;SDS011;23119;51.842;-2.230;2023-03-04T04:43:50;13.15;;;1.30;;
37221;SDS011;23119;51.842;-2.230;2023-03-04T04:46:16;8.75;;;1.30;;
37221;SDS011;23119;51.842;-2.230;2023-03-04T04:48:43;10.27;;;1.83;;
37221;SDS011;23119;51.842;-2.230;2023-03-04T04:51:09;10.82;;;2.03;;
37221;SDS011;23119;51.842;-2.230;2023-03-04T04:53:49;6.68;;;1.70;;
37221;SDS011;23119;51.842;-2.230;2023-03-04T04:56:20;4.85;;;1.40;;
37221;SDS011;23119;51.842;-2.230;2023-03-04T04:58:53;5.03;;;1.25;;
37221;SDS011;23119;51.842;-2.230;2023-03-04T05:01:24;5.60;;;1.27;;
37221;SDS011;23119;51.842;-2.230;2023-03-04T05:03:53;3.85;;;1.38;;
37221;SDS011;23119;51.842;-2.230;2023-03-04T05:06:22;12.02;;;1.60;;
37221;SDS011;23119;51.842;-2.230;2023-03-04T05:08:49;6.65;;;0.90;;
37221;SDS011;23119;51.842;-2.230;2023-03-04T05:11:18;5.13;;;1.48;;
37221;SDS011;23119;51.842;-2.230;2023-03-04T05:13:49;9.75;;;1.80;;
37221;SDS011;23119;51.842;-2.230;2023-03-04T05:16:21;9.38;;;2.33;;
37221;SDS011;23119;51.842;-2.230;2023-03-04T05:18:52;9.38;;;2.28;;
37221;SDS011;23119;51.842;-2.230;2023-03-04T05:21:20;8.20;;;1.60;;
37221;SDS011;23119;51.842;-2.230;2023-03-04T05:23:46;6.35;;;2.10;;
37221;SDS011;23119;51.842;-2.230;2023-03-04T05:26:15;5.07;;;1.58;;
37221;SDS011;23119;51.842;-2.230;2023-03-04T05:28:42;5.10;;;1.75;;
37221;SDS011;23119;51.842;-2.230;2023-03-04T05:31:16;4.63;;;2.05;;
37221;SDS011;23119;51.842;-2.230;2023-03-04T05:33:45;5.63;;;3.90;;
37221;SDS011;23119;51.842;-2.230;2023-03-04T05:36:13;6.40;;;1.75;;
37221;SDS011;23119;51.842;-2.230;2023-03-04T05:38:42;6.80;;;2.00;;
37221;SDS011;23119;51.842;-2.230;2023-03-04T05:41:13;10.32;;;2.78;;
37221;SDS011;23119;51.842;-2.230;2023-03-04T05:43:39;8.48;;;2.00;;
37221;SDS011;23119;51.842;-2.230;2023-03-04T05:46:08;7.95;;;2.15;;
37221;SDS011;23119;51.842;-2.230;2023-03-04T05:48:37;5.20;;;1.60;;
37221;SDS011;23119;51.842;-2.230;2023-03-04T05:51:03;8.85;;;2.08;;
37221;SDS011;23119;51.842;-2.230;2023-03-04T05:53:32;8.32;;;2.25;;
37221;SDS011;23119;51.842;-2.230;2023-03-04T05:56:05;7.10;;;2.60;;
37221;SDS011;23119;51.842;-2.230;2023-03-04T05:58:32;11.00;;;1.98;;
37221;SDS011;23119;51.842;-2.230;2023-03-04T06:01:00;8.90;;;2.70;;
37221;SDS011;23119;51.842;-2.230;2023-03-04T06:03:29;7.80;;;2.50;;
37221;SDS011;23119;51.842;-2.230;2023-03-04T06:05:55;16.52;;;2.67;;
37221;SDS011;23119;51.842;-2.230;2023-03-04T06:08:24;10.93;;;2.28;;
37221;SDS011;23119;51.842;-2.230;2023-03-04T06:10:55;8.07;;;2.25;;
37221;SDS011;23119;51.842;-2.230;2023-03-04T06:13:24;6.85;;;2.17;;
37221;SDS011;23119;51.842;-2.230;2023-03-04T06:16:08;6.90;;;2.35;;
37221;SDS011;23119;51.842;-2.230;2023-03-04T06:18:34;7.05;;;1.88;;
37221;SDS011;23119;51.842;-2.230;2023-03-04T06:21:02;8.65;;;2.80;;
37221;SDS011;23119;51.842;-2.230;2023-03-04T06:23:31;9.13;;;3.05;;
37221;SDS011;23119;51.842;-2.230;2023-03-04T06:26:01;7.18;;;2.88;;
37221;SDS011;23119;51.842;-2.230;2023-03-04T06:28:27;8.20;;;2.78;;
37221;SDS011;23119;51.842;-2.230;2023-03-04T06:30:56;6.15;;;1.95;;
37221;SDS011;23119;51.842;-2.230;2023-03-04T06:33:25;8.15;;;2.75;;
37221;SDS011;23119;51.842;-2.230;2023-03-04T06:35:56;7.78;;;2.50;;
37221;SDS011;23119;51.842;-2.230;2023-03-04T06:38:25;8.15;;;2.58;;
37221;SDS011;23119;51.842;-2.230;2023-03-04T06:40:51;8.93;;;3.13;;
37221;SDS011;23119;51.842;-2.230;2023-03-04T06:43:20;7.00;;;3.00;;
37221;SDS011;23119;51.842;-2.230;2023-03-04T06:48:19;11.20;;;4.70;;
37221;SDS011;23119;51.842;-2.230;2023-03-04T06:50:48;11.32;;;4.65;;
37221;SDS011;23119;51.842;-2.230;2023-03-04T06:53:16;8.70;;;4.50;;
37221;SDS011;23119;51.842;-2.230;2023-03-04T06:55:42;12.60;;;5.60;;
37221;SDS011;23119;51.842;-2.230;2023-03-04T06:58:14;16.70;;;5.70;;
37221;SDS011;23119;51.842;-2.230;2023-03-04T07:00:41;10.75;;;5.05;;
37221;SDS011;23119;51.842;-2.230;2023-03-04T07:03:10;15.02;;;5.15;;
37221;SDS011;23119;51.842;-2.230;2023-03-04T07:05:38;12.27;;;5.65;;
37221;SDS011;23119;51.842;-2.230;2023-03-04T07:08:07;14.23;;;5.57;;
37221;SDS011;23119;51.842;-2.230;2023-03-04T07:10:33;10.85;;;5.70;;
37221;SDS011;23119;51.842;-2.230;2023-03-04T07:13:04;12.35;;;5.10;;
37221;SDS011;23119;51.842;-2.230;2023-03-04T07:15:32;14.45;;;4.88;;
37221;SDS011;23119;51.842;-2.230;2023-03-04T07:18:01;13.38;;;5.25;;
37221;SDS011;23119;51.842;-2.230;2023-03-04T07:20:30;12.20;;;5.13;;
37221;SDS011;23119;51.842;-2.230;2023-03-04T07:22:55;12.68;;;4.50;;
37221;SDS011;23119;51.842;-2.230;2023-03-04T07:25:33;9.55;;;4.55;;
37221;SDS011;23119;51.842;-2.230;2023-03-04T07:27:59;12.07;;;5.38;;
37221;SDS011;23119;51.842;-2.230;2023-03-04T07:30:27;7.85;;;3.83;;
37221;SDS011;23119;51.842;-2.230;2023-03-04T07:32:56;12.70;;;4.70;;
37221;SDS011;23119;51.842;-2.230;2023-03-04T07:35:27;12.07;;;4.78;;
37221;SDS011;23119;51.842;-2.230;2023-03-04T07:37:56;6.75;;;3.58;;
37221;SDS011;23119;51.842;-2.230;2023-03-04T07:40:24;9.95;;;5.13;;
37221;SDS011;23119;51.842;-2.230;2023-03-04T07:42:54;9.82;;;4.05;;
37221;SDS011;23119;51.842;-2.230;2023-03-04T07:45:20;11.05;;;4.32;;
37221;SDS011;23119;51.842;-2.230;2023-03-04T07:47:52;8.18;;;3.95;;
37221;SDS011;23119;51.842;-2.230;2023-03-04T07:50:18;10.35;;;4.22;;
37221;SDS011;23119;51.842;-2.230;2023-03-04T07:52:50;12.82;;;4.22;;
37221;SDS011;23119;51.842;-2.230;2023-03-04T07:55:18;12.17;;;3.83;;
37221;SDS011;23119;51.842;-2.230;2023-03-04T07:57:45;9.63;;;3.70;;
37221;SDS011;23119;51.842;-2.230;2023-03-04T08:00:11;13.00;;;3.50;;
37221;SDS011;23119;51.842;-2.230;2023-03-04T08:02:43;9.68;;;3.42;;
37221;SDS011;23119;51.842;-2.230;2023-03-04T08:05:12;10.45;;;3.05;;
37221;SDS011;23119;51.842;-2.230;2023-03-04T08:07:38;14.27;;;3.47;;
37221;SDS011;23119;51.842;-2.230;2023-03-04T08:10:04;9.48;;;3.00;;
37221;SDS011;23119;51.842;-2.230;2023-03-04T08:12:30;13.40;;;3.80;;
37221;SDS011;23119;51.842;-2.230;2023-03-04T08:15:01;9.45;;;4.00;;
37221;SDS011;23119;51.842;-2.230;2023-03-04T08:17:30;15.30;;;4.25;;
37221;SDS011;23119;51.842;-2.230;2023-03-04T08:20:01;7.60;;;3.45;;
37221;SDS011;23119;51.842;-2.230;2023-03-04T08:22:29;9.93;;;3.78;;
37221;SDS011;23119;51.842;-2.230;2023-03-04T08:24:55;11.02;;;4.22;;
37221;SDS011;23119;51.842;-2.230;2023-03-04T08:27:29;8.48;;;4.20;;
37221;SDS011;23119;51.842;-2.230;2023-03-04T08:29:57;8.20;;;4.43;;
37221;SDS011;23119;51.842;-2.230;2023-03-04T08:32:29;10.15;;;3.92;;
37221;SDS011;23119;51.842;-2.230;2023-03-04T08:34:57;9.77;;;4.15;;
37221;SDS011;23119;51.842;-2.230;2023-03-04T08:37:26;12.07;;;3.95;;
37221;SDS011;23119;51.842;-2.230;2023-03-04T08:39:56;12.30;;;4.35;;
37221;SDS011;23119;51.842;-2.230;2023-03-04T08:42:22;9.15;;;4.03;;
37221;SDS011;23119;51.842;-2.230;2023-03-04T08:44:52;10.57;;;3.67;;
37221;SDS011;23119;51.842;-2.230;2023-03-04T08:47:20;10.02;;;3.95;;
37221;SDS011;23119;51.842;-2.230;2023-03-04T08:49:51;10.27;;;4.05;;
37221;SDS011;23119;51.842;-2.230;2023-03-04T08:52:22;11.32;;;4.60;;
37221;SDS011;23119;51.842;-2.230;2023-03-04T08:54:48;9.35;;;3.83;;
37221;SDS011;23119;51.842;-2.230;2023-03-04T08:57:17;10.35;;;4.53;;
37221;SDS011;23119;51.842;-2.230;2023-03-04T08:59:48;16.80;;;5.43;;
37221;SDS011;23119;51.842;-2.230;2023-03-04T09:02:17;11.38;;;5.18;;
37221;SDS011;23119;51.842;-2.230;2023-03-04T09:04:45;11.88;;;5.28;;
37221;SDS011;23119;51.842;-2.230;2023-03-04T09:07:11;15.48;;;6.13;;
37221;SDS011;23119;51.842;-2.230;2023-03-04T09:09:38;12.43;;;5.95;;
37221;SDS011;23119;51.842;-2.230;2023-03-04T09:12:04;19.17;;;6.88;;
37221;SDS011;23119;51.842;-2.230;2023-03-04T09:14:30;13.02;;;5.95;;
37221;SDS011;23119;51.842;-2.230;2023-03-04T09:16:59;15.88;;;5.90;;
37221;SDS011;23119;51.842;-2.230;2023-03-04T09:19:28;14.27;;;5.78;;
37221;SDS011;23119;51.842;-2.230;2023-03-04T09:21:54;16.00;;;6.60;;
37221;SDS011;23119;51.842;-2.230;2023-03-04T09:24:23;12.70;;;6.57;;
37221;SDS011;23119;51.842;-2.230;2023-03-04T09:26:52;16.70;;;7.80;;
37221;SDS011;23119;51.842;-2.230;2023-03-04T09:29:26;13.57;;;6.43;;
37221;SDS011;23119;51.842;-2.230;2023-03-04T09:31:52;14.13;;;6.75;;
37221;SDS011;23119;51.842;-2.230;2023-03-04T09:34:21;11.95;;;6.18;;
37221;SDS011;23119;51.842;-2.230;2023-03-04T09:36:49;13.05;;;6.35;;
37221;SDS011;23119;51.842;-2.230;2023-03-04T09:39:15;13.52;;;5.47;;
37221;SDS011;23119;51.842;-2.230;2023-03-04T09:41:42;14.00;;;6.80;;
37221;SDS011;23119;51.842;-2.230;2023-03-04T09:44:22;11.40;;;6.82;;
37221;SDS011;23119;51.842;-2.230;2023-03-04T09:46:54;9.88;;;4.88;;
37221;SDS011;23119;51.842;-2.230;2023-03-04T09:49:34;12.45;;;6.22;;
37221;SDS011;23119;51.842;-2.230;2023-03-04T09:54:57;16.83;;;6.00;;
37221;SDS011;23119;51.842;-2.230;2023-03-04T10:00:45;10.15;;;5.63;;
37221;SDS011;23119;51.842;-2.230;2023-03-04T10:03:18;12.90;;;5.35;;
37221;SDS011;23119;51.842;-2.230;2023-03-04T10:06:08;11.02;;;5.55;;
37221;SDS011;23119;51.842;-2.230;2023-03-04T10:11:39;16.75;;;6.28;;
37221;SDS011;23119;51.842;-2.230;2023-03-04T10:16:54;16.00;;;6.75;;
37221;SDS011;23119;51.842;-2.230;2023-03-04T10:22:52;9.40;;;5.22;;
37221;SDS011;23119;51.842;-2.230;2023-03-04T10:25:36;11.60;;;5.05;;
37221;SDS011;23119;51.842;-2.230;2023-03-04T10:33:16;14.07;;;6.45;;
37221;SDS011;23119;51.842;-2.230;2023-03-04T10:35:59;12.13;;;6.05;;
37221;SDS011;23119;51.842;-2.230;2023-03-04T10:38:29;12.25;;;5.40;;
37221;SDS011;23119;51.842;-2.230;2023-03-04T10:40:59;12.60;;;5.15;;
37221;SDS011;23119;51.842;-2.230;2023-03-04T10:43:29;8.05;;;5.93;;
37221;SDS011;23119;51.842;-2.230;2023-03-04T10:48:30;11.85;;;5.57;;
37221;SDS011;23119;51.842;-2.230;2023-03-04T10:53:46;12.13;;;5.95;;
37221;SDS011;23119;51.842;-2.230;2023-03-04T11:04:46;11.07;;;5.15;;
37221;SDS011;23119;51.842;-2.230;2023-03-04T11:07:18;12.00;;;5.43;;
37221;SDS011;23119;51.842;-2.230;2023-03-04T11:09:53;14.25;;;5.00;;
37221;SDS011;23119;51.842;-2.230;2023-03-04T11:12:29;14.40;;;5.35;;
37221;SDS011;23119;51.842;-2.230;2023-03-04T11:14:58;17.73;;;6.07;;
37221;SDS011;23119;51.842;-2.230;2023-03-04T11:17:44;13.18;;;5.28;;
37221;SDS011;23119;51.842;-2.230;2023-03-04T11:20:40;9.90;;;4.72;;
37221;SDS011;23119;51.842;-2.230;2023-03-04T11:23:10;12.90;;;4.68;;
37221;SDS011;23119;51.842;-2.230;2023-03-04T11:25:41;9.70;;;4.47;;
37221;SDS011;23119;51.842;-2.230;2023-03-04T11:28:18;12.63;;;4.90;;
37221;SDS011;23119;51.842;-2.230;2023-03-04T11:31:02;10.40;;;4.80;;
37221;SDS011;23119;51.842;-2.230;2023-03-04T11:39:02;13.90;;;5.22;;
37221;SDS011;23119;51.842;-2.230;2023-03-04T11:41:39;9.88;;;5.22;;
37221;SDS011;23119;51.842;-2.230;2023-03-04T11:44:13;12.40;;;4.55;;
37221;SDS011;23119;51.842;-2.230;2023-03-04T12:00:50;11.82;;;5.28;;
37221;SDS011;23119;51.842;-2.230;2023-03-04T12:18:09;11.48;;;4.88;;
37221;SDS011;23119;51.842;-2.230;2023-03-04T12:20:50;14.02;;;6.63;;
37221;SDS011;23119;51.842;-2.230;2023-03-04T12:26:28;14.43;;;5.82;;
37221;SDS011;23119;51.842;-2.230;2023-03-04T12:35:13;11.27;;;5.10;;
37221;SDS011;23119;51.842;-2.230;2023-03-04T12:37:47;8.75;;;5.15;;
37221;SDS011;23119;51.842;-2.230;2023-03-04T12:48:23;12.50;;;5.50;;
37221;SDS011;23119;51.842;-2.230;2023-03-04T12:53:49;13.25;;;7.13;;
37221;SDS011;23119;51.842;-2.230;2023-03-04T12:56:30;12.45;;;6.03;;
37221;SDS011;23119;51.842;-2.230;2023-03-04T12:59:03;12.32;;;6.32;;
37221;SDS011;23119;51.842;-2.230;2023-03-04T13:12:49;12.73;;;6.47;;
37221;SDS011;23119;51.842;-2.230;2023-03-04T13:17:53;12.63;;;6.07;;
37221;SDS011;23119;51.842;-2.230;2023-03-04T13:21:04;13.70;;;6.22;;
37221;SDS011;23119;51.842;-2.230;2023-03-04T13:23:34;9.43;;;5.20;;
37221;SDS011;23119;51.842;-2.230;2023-03-04T13:28:29;13.80;;;6.38;;
37221;SDS011;23119;51.842;-2.230;2023-03-04T13:35:50;13.05;;;6.25;;
37221;SDS011;23119;51.842;-2.230;2023-03-04T13:43:37;9.20;;;4.82;;
37221;SDS011;23119;51.842;-2.230;2023-03-04T13:47:05;10.50;;;5.05;;
37221;SDS011;23119;51.842;-2.230;2023-03-04T13:49:05;16.15;;;5.95;;
37221;SDS011;23119;51.842;-2.230;2023-03-04T13:51:42;12.48;;;6.20;;
37221;SDS011;23119;51.842;-2.230;2023-03-04T13:54:13;14.90;;;5.78;;
37221;SDS011;23119;51.842;-2.230;2023-03-04T13:56:43;10.27;;;5.95;;
37221;SDS011;23119;51.842;-2.230;2023-03-04T13:59:33;10.80;;;4.55;;
37221;SDS011;23119;51.842;-2.230;2023-03-04T14:02:18;13.63;;;5.95;;
37221;SDS011;23119;51.842;-2.230;2023-03-04T14:10:00;9.85;;;4.78;;
37221;SDS011;23119;51.842;-2.230;2023-03-04T14:12:36;12.63;;;6.60;;
37221;SDS011;23119;51.842;-2.230;2023-03-04T14:15:27;14.85;;;5.25;;
37221;SDS011;23119;51.842;-2.230;2023-03-04T14:17:57;12.07;;;5.15;;
37221;SDS011;23119;51.842;-2.230;2023-03-04T14:22:50;8.18;;;4.90;;
37221;SDS011;23119;51.842;-2.230;2023-03-04T14:25:29;10.75;;;4.22;;
37221;SDS011;23119;51.842;-2.230;2023-03-04T14:28:01;12.00;;;4.07;;
37221;SDS011;23119;51.842;-2.230;2023-03-04T14:30:31;8.15;;;4.35;;
37221;SDS011;23119;51.842;-2.230;2023-03-04T14:33:01;9.73;;;4.40;;
37221;SDS011;23119;51.842;-2.230;2023-03-04T14:35:31;11.50;;;4.13;;
37221;SDS011;23119;51.842;-2.230;2023-03-04T14:40:32;11.63;;;4.43;;
37221;SDS011;23119;51.842;-2.230;2023-03-04T14:43:10;20.10;;;6.70;;
37221;SDS011;23119;51.842;-2.230;2023-03-04T14:45:42;14.93;;;5.25;;
37221;SDS011;23119;51.842;-2.230;2023-03-04T14:48:16;13.43;;;5.28;;
37221;SDS011;23119;51.842;-2.230;2023-03-04T14:50:51;10.07;;;4.60;;
37221;SDS011;23119;51.842;-2.230;2023-03-04T14:53:20;11.63;;;4.38;;
37221;SDS011;23119;51.842;-2.230;2023-03-04T14:58:23;13.55;;;4.47;;
37221;SDS011;23119;51.842;-2.230;2023-03-04T15:03:37;13.35;;;4.85;;
37221;SDS011;23119;51.842;-2.230;2023-03-04T15:06:14;11.00;;;5.28;;
37221;SDS011;23119;51.842;-2.230;2023-03-04T15:08:53;8.27;;;4.82;;
37221;SDS011;23119;51.842;-2.230;2023-03-04T15:11:31;11.05;;;5.72;;
37221;SDS011;23119;51.842;-2.230;2023-03-04T15:25:26;11.65;;;5.13;;
37221;SDS011;23119;51.842;-2.230;2023-03-04T15:27:56;13.38;;;5.13;;
37221;SDS011;23119;51.842;-2.230;2023-03-04T15:30:29;13.50;;;5.07;;
37221;SDS011;23119;51.842;-2.230;2023-03-04T15:32:57;11.70;;;5.32;;
37221;SDS011;23119;51.842;-2.230;2023-03-04T15:35:24;14.02;;;5.28;;
37221;SDS011;23119;51.842;-2.230;2023-03-04T15:37:53;13.43;;;5.65;;
37221;SDS011;23119;51.842;-2.230;2023-03-04T15:40:38;12.55;;;4.97;;
37221;SDS011;23119;51.842;-2.230;2023-03-04T15:43:07;8.63;;;4.35;;
37221;SDS011;23119;51.842;-2.230;2023-03-04T15:45:43;7.20;;;4.47;;
37221;SDS011;23119;51.842;-2.230;2023-03-04T15:48:12;12.30;;;5.20;;
37221;SDS011;23119;51.842;-2.230;2023-03-04T15:53:25;7.47;;;4.28;;
37221;SDS011;23119;51.842;-2.230;2023-03-04T15:55:58;10.63;;;5.03;;
37221;SDS011;23119;51.842;-2.230;2023-03-04T15:58:27;12.48;;;5.25;;
37221;SDS011;23119;51.842;-2.230;2023-03-04T16:00:54;13.88;;;5.10;;
37221;SDS011;23119;51.842;-2.230;2023-03-04T16:03:23;11.20;;;4.85;;
37221;SDS011;23119;51.842;-2.230;2023-03-04T16:05:54;10.35;;;4.90;;
37221;SDS011;23119;51.842;-2.230;2023-03-04T16:08:26;10.05;;;4.22;;
37221;SDS011;23119;51.842;-2.230;2023-03-04T16:10:53;14.48;;;4.50;;
37221;SDS011;23119;51.842;-2.230;2023-03-04T16:13:22;16.27;;;6.10;;
37221;SDS011;23119;51.842;-2.230;2023-03-04T16:15:53;11.52;;;4.13;;
37221;SDS011;23119;51.842;-2.230;2023-03-04T16:18:19;14.05;;;5.30;;
37221;SDS011;23119;51.842;-2.230;2023-03-04T16:20:48;20.92;;;5.68;;
37221;SDS011;23119;51.842;-2.230;2023-03-04T16:23:17;10.95;;;4.97;;
37221;SDS011;23119;51.842;-2.230;2023-03-04T16:25:52;12.45;;;4.82;;
37221;SDS011;23119;51.842;-2.230;2023-03-04T16:28:22;13.02;;;5.50;;
37221;SDS011;23119;51.842;-2.230;2023-03-04T16:30:54;9.35;;;4.35;;
37221;SDS011;23119;51.842;-2.230;2023-03-04T16:33:20;10.63;;;4.30;;
37221;SDS011;23119;51.842;-2.230;2023-03-04T16:35:46;7.07;;;4.22;;
37221;SDS011;23119;51.842;-2.230;2023-03-04T16:38:22;8.48;;;3.88;;
37221;SDS011;23119;51.842;-2.230;2023-03-04T16:40:54;10.65;;;4.00;;
37221;SDS011;23119;51.842;-2.230;2023-03-04T16:43:22;11.60;;;4.25;;
37221;SDS011;23119;51.842;-2.230;2023-03-04T16:45:51;10.50;;;4.45;;
37221;SDS011;23119;51.842;-2.230;2023-03-04T16:48:20;9.75;;;3.78;;
37221;SDS011;23119;51.842;-2.230;2023-03-04T16:50:55;11.18;;;4.18;;
37221;SDS011;23119;51.842;-2.230;2023-03-04T16:53:31;8.63;;;3.63;;
37221;SDS011;23119;51.842;-2.230;2023-03-04T16:56:04;11.70;;;3.38;;
37221;SDS011;23119;51.842;-2.230;2023-03-04T16:58:38;11.10;;;3.80;;
37221;SDS011;23119;51.842;-2.230;2023-03-04T17:01:18;6.55;;;3.40;;
37221;SDS011;23119;51.842;-2.230;2023-03-04T17:03:50;8.35;;;3.55;;
37221;SDS011;23119;51.842;-2.230;2023-03-04T17:06:19;11.00;;;3.60;;
37221;SDS011;23119;51.842;-2.230;2023-03-04T17:08:54;7.22;;;3.08;;
37221;SDS011;23119;51.842;-2.230;2023-03-04T17:11:22;6.20;;;3.72;;
37221;SDS011;23119;51.842;-2.230;2023-03-04T17:13:51;11.45;;;4.72;;
37221;SDS011;23119;51.842;-2.230;2023-03-04T17:16:17;13.10;;;4.70;;